sensor_id;sensor_type;location;lat;lon;timestamp;pressure;altitude;pressure_sealevel;temperature;humidity
23899;BME280;20544;50.018;20.010;2023-08-06T00:01:56;97474.30;;;19.55;100.00
23899;BME280;20544;50.018;20.010;2023-08-06T00:05:14;97475.09;;;19.56;100.00
23899;BME280;20544;50.018;20.010;2023-08-06T00:08:32;97472.39;;;19.56;100.00
23899;BME280;20544;50.018;20.010;2023-08-06T00:11:49;97470.53;;;19.56;100.00
23899;BME280;20544;50.018;20.010;2023-08-06T00:15:11;97472.94;;;19.58;100.00
23899;BME280;20544;50.018;20.010;2023-08-06T00:18:29;97438.52;;;19.55;100.00
23899;BME280;20544;50.018;20.010;2023-08-06T00:21:46;97432.34;;;19.54;100.00
23899;BME280;20544;50.018;20.010;2023-08-06T00:25:04;97446.86;;;19.53;100.00
23899;BME280;20544;50.018;20.010;2023-08-06T00:28:20;97438.26;;;19.51;100.00
23899;BME280;20544;50.018;20.010;2023-08-06T00:31:36;97445.25;;;19.52;100.00
23899;BME280;20544;50.018;20.010;2023-08-06T00:34:53;97438.80;;;19.53;100.00
23899;BME280;20544;50.018;20.010;2023-08-06T00:38:11;97438.52;;;19.55;100.00
23899;BME280;20544;50.018;20.010;2023-08-06T00:41:28;97423.48;;;19.54;100.00
23899;BME280;20544;50.018;20.010;2023-08-06T00:44:48;97394.98;;;19.53;100.00
23899;BME280;20544;50.018;20.010;2023-08-06T00:48:06;97335.84;;;19.53;100.00
23899;BME280;20544;50.018;20.010;2023-08-06T00:51:24;97357.38;;;19.48;100.00
23899;BME280;20544;50.018;20.010;2023-08-06T00:54:43;97316.26;;;19.42;100.00
23899;BME280;20544;50.018;20.010;2023-08-06T00:58:00;97207.09;;;19.46;100.00
23899;BME280;20544;50.018;20.010;2023-08-06T01:01:17;97279.67;;;19.46;100.00
23899;BME280;20544;50.018;20.010;2023-08-06T01:04:34;97357.63;;;19.46;100.00
23899;BME280;20544;50.018;20.010;2023-08-06T01:08:02;97353.61;;;19.44;100.00
23899;BME280;20544;50.018;20.010;2023-08-06T01:11:25;97366.27;;;19.38;100.00
23899;BME280;20544;50.018;20.010;2023-08-06T01:14:48;97366.78;;;19.40;100.00
23899;BME280;20544;50.018;20.010;2023-08-06T01:18:08;97367.63;;;19.35;100.00
23899;BME280;20544;50.018;20.010;2023-08-06T01:21:25;97367.34;;;19.37;100.00
23899;BME280;20544;50.018;20.010;2023-08-06T01:24:45;97353.63;;;19.38;100.00
23899;BME280;20544;50.018;20.010;2023-08-06T01:28:11;97340.47;;;19.37;100.00
23899;BME280;20544;50.018;20.010;2023-08-06T01:31:31;97342.33;;;19.36;100.00
23899;BME280;20544;50.018;20.010;2023-08-06T01:34:49;97330.53;;;19.32;100.00
23899;BME280;20544;50.018;20.010;2023-08-06T01:38:10;97323.55;;;19.31;100.00
23899;BME280;20544;50.018;20.010;2023-08-06T01:41:27;97315.20;;;19.38;100.00
23899;BME280;20544;50.018;20.010;2023-08-06T01:44:44;97307.94;;;19.38;100.00
23899;BME280;20544;50.018;20.010;2023-08-06T01:48:01;97302.56;;;19.38;100.00
23899;BME280;20544;50.018;20.010;2023-08-06T01:51:18;97301.77;;;19.38;100.00
23899;BME280;20544;50.018;20.010;2023-08-06T01:54:35;97296.92;;;19.35;100.00
23899;BME280;20544;50.018;20.010;2023-08-06T01:57:54;97286.46;;;19.33;100.00
23899;BME280;20544;50.018;20.010;2023-08-06T02:01:11;97285.89;;;19.36;100.00
23899;BME280;20544;50.018;20.010;2023-08-06T02:04:31;97284.80;;;19.43;100.00
23899;BME280;20544;50.018;20.010;2023-08-06T02:07:49;97276.19;;;19.46;100.00
23899;BME280;20544;50.018;20.010;2023-08-06T02:11:06;97270.00;;;19.50;100.00
23899;BME280;20544;50.018;20.010;2023-08-06T02:14:24;97273.19;;;19.52;100.00
23899;BME280;20544;50.018;20.010;2023-08-06T02:17:41;97260.29;;;19.54;100.00
23899;BME280;20544;50.018;20.010;2023-08-06T02:20:59;97262.19;;;19.54;100.00
23899;BME280;20544;50.018;20.010;2023-08-06T02:24:16;97260.03;;;19.51;100.00
23899;BME280;20544;50.018;20.010;2023-08-06T02:27:33;97258.96;;;19.52;100.00
23899;BME280;20544;50.018;20.010;2023-08-06T02:30:53;97261.36;;;19.53;100.00
23899;BME280;20544;50.018;20.010;2023-08-06T02:34:10;97260.29;;;19.54;100.00
23899;BME280;20544;50.018;20.010;2023-08-06T02:37:29;97244.95;;;19.55;100.00
23899;BME280;20544;50.018;20.010;2023-08-06T02:40:47;97245.48;;;19.57;100.00
23899;BME280;20544;50.018;20.010;2023-08-06T02:44:04;97240.39;;;19.55;100.00
23899;BME280;20544;50.018;20.010;2023-08-06T02:47:21;97232.87;;;19.52;100.00
23899;BME280;20544;50.018;20.010;2023-08-06T02:50:41;97228.86;;;19.50;100.00
23899;BME280;20544;50.018;20.010;2023-08-06T02:53:58;97234.80;;;19.47;100.00
23899;BME280;20544;50.018;20.010;2023-08-06T02:57:16;97230.50;;;19.46;100.00
23899;BME280;20544;50.018;20.010;2023-08-06T03:00:34;97237.77;;;19.45;100.00
23899;BME280;20544;50.018;20.010;2023-08-06T03:03:52;97248.23;;;19.47;100.00
23899;BME280;20544;50.018;20.010;2023-08-06T03:07:13;97250.64;;;19.48;100.00
23899;BME280;20544;50.018;20.010;2023-08-06T03:10:32;97243.37;;;19.49;100.00
23899;BME280;20544;50.018;20.010;2023-08-06T03:13:51;97238.81;;;19.49;100.00
23899;BME280;20544;50.018;20.010;2023-08-06T03:17:09;97237.99;;;19.49;100.00
23899;BME280;20544;50.018;20.010;2023-08-06T03:20:26;97235.59;;;19.47;100.00
23899;BME280;20544;50.018;20.010;2023-08-06T03:23:44;97219.43;;;19.52;100.00
23899;BME280;20544;50.018;20.010;2023-08-06T03:27:05;97213.26;;;19.52;100.00
23899;BME280;20544;50.018;20.010;2023-08-06T03:30:23;97212.44;;;19.51;100.00
23899;BME280;20544;50.018;20.010;2023-08-06T03:33:40;97208.17;;;19.50;100.00
23899;BME280;20544;50.018;20.010;2023-08-06T03:36:59;97204.13;;;19.53;100.00
23899;BME280;20544;50.018;20.010;2023-08-06T03:40:19;97208.92;;;19.56;100.00
23899;BME280;20544;50.018;20.010;2023-08-06T03:43:37;97208.13;;;19.55;100.00
23899;BME280;20544;50.018;20.010;2023-08-06T03:46:54;97188.49;;;19.55;100.00
23899;BME280;20544;50.018;20.010;2023-08-06T03:50:11;97179.35;;;19.56;100.00
23899;BME280;20544;50.018;20.010;2023-08-06T03:53:30;97174.80;;;19.56;100.00
23899;BME280;20544;50.018;20.010;2023-08-06T03:56:47;97162.94;;;19.58;100.00
23899;BME280;20544;50.018;20.010;2023-08-06T04:00:04;97161.59;;;19.60;100.00
23899;BME280;20544;50.018;20.010;2023-08-06T04:03:22;97157.30;;;19.59;100.00
23899;BME280;20544;50.018;20.010;2023-08-06T04:06:40;97150.02;;;19.60;100.00
23899;BME280;20544;50.018;20.010;2023-08-06T04:09:59;97150.84;;;19.60;100.00
23899;BME280;20544;50.018;20.010;2023-08-06T04:13:21;97155.41;;;19.60;100.00
23899;BME280;20544;50.018;20.010;2023-08-06T04:16:39;97145.47;;;19.60;100.00
23899;BME280;20544;50.018;20.010;2023-08-06T04:19:57;97140.88;;;19.61;100.00
23899;BME280;20544;50.018;20.010;2023-08-06T04:23:15;97147.88;;;19.62;100.00
23899;BME280;20544;50.018;20.010;2023-08-06T04:26:34;97140.88;;;19.61;100.00
23899;BME280;20544;50.018;20.010;2023-08-06T04:29:57;97144.66;;;19.60;100.00
23899;BME280;20544;50.018;20.010;2023-08-06T04:33:17;97137.41;;;19.60;100.00
23899;BME280;20544;50.018;20.010;2023-08-06T04:36:38;97146.80;;;19.58;100.00
23899;BME280;20544;50.018;20.010;2023-08-06T04:39:57;97144.11;;;19.58;100.00
23899;BME280;20544;50.018;20.010;2023-08-06T04:43:16;97143.04;;;19.59;100.00
23899;BME280;20544;50.018;20.010;2023-08-06T04:46:32;97136.30;;;19.61;100.00
23899;BME280;20544;50.018;20.010;2023-08-06T04:49:54;97138.73;;;19.63;100.00
23899;BME280;20544;50.018;20.010;2023-08-06T04:53:11;97137.07;;;19.67;100.00
23899;BME280;20544;50.018;20.010;2023-08-06T04:56:29;97141.88;;;19.70;100.00
23899;BME280;20544;50.018;20.010;2023-08-06T04:59:47;97132.73;;;19.71;100.00
23899;BME280;20544;50.018;20.010;2023-08-06T05:03:04;97123.30;;;19.73;100.00
23899;BME280;20544;50.018;20.010;2023-08-06T05:06:21;97124.11;;;19.74;100.00
23899;BME280;20544;50.018;20.010;2023-08-06T05:09:38;97123.03;;;19.75;100.00
23899;BME280;20544;50.018;20.010;2023-08-06T05:12:58;97108.48;;;19.76;100.00
23899;BME280;20544;50.018;20.010;2023-08-06T05:16:15;97104.42;;;19.79;100.00
23899;BME280;20544;50.018;20.010;2023-08-06T05:19:32;97103.63;;;19.78;100.00
23899;BME280;20544;50.018;20.010;2023-08-06T05:22:50;97092.34;;;19.76;100.00
23899;BME280;20544;50.018;20.010;2023-08-06T05:26:07;97091.80;;;19.79;100.00
23899;BME280;20544;50.018;20.010;2023-08-06T05:29:24;97083.44;;;19.81;100.00
23899;BME280;20544;50.018;20.010;2023-08-06T05:32:46;97077.27;;;19.80;100.00
23899;BME280;20544;50.018;20.010;2023-08-06T05:36:07;97080.22;;;19.79;100.00
23899;BME280;20544;50.018;20.010;2023-08-06T05:39:27;97073.27;;;19.78;100.00
23899;BME280;20544;50.018;20.010;2023-08-06T05:42:44;97063.59;;;19.77;100.00
23899;BME280;20544;50.018;20.010;2023-08-06T05:46:04;97065.45;;;19.76;100.00
23899;BME280;20544;50.018;20.010;2023-08-06T05:49:23;97059.09;;;19.67;100.00
23899;BME280;20544;50.018;20.010;2023-08-06T05:52:42;97048.34;;;19.67;100.00
23899;BME280;20544;50.018;20.010;2023-08-06T05:56:02;97043.20;;;19.70;100.00
23899;BME280;20544;50.018;20.010;2023-08-06T05:59:19;97039.94;;;19.73;100.00
23899;BME280;20544;50.018;20.010;2023-08-06T06:02:36;97046.63;;;19.76;100.00
23899;BME280;20544;50.018;20.010;2023-08-06T06:05:54;97045.27;;;19.79;100.00
23899;BME280;20544;50.018;20.010;2023-08-06T06:09:26;97034.50;;;19.79;100.00
23899;BME280;20544;50.018;20.010;2023-08-06T06:12:47;97027.25;;;19.79;100.00
23899;BME280;20544;50.018;20.010;2023-08-06T06:16:06;97021.58;;;19.81;100.00
23899;BME280;20544;50.018;20.010;2023-08-06T06:19:30;97020.27;;;19.78;100.00
23899;BME280;20544;50.018;20.010;2023-08-06T06:22:55;97010.83;;;19.81;100.00
23899;BME280;20544;50.018;20.010;2023-08-06T06:26:12;97008.95;;;19.81;100.00
23899;BME280;20544;50.018;20.010;2023-08-06T06:29:28;97008.95;;;19.81;100.00
23899;BME280;20544;50.018;20.010;2023-08-06T06:32:45;97000.36;;;19.79;100.00
23899;BME280;20544;50.018;20.010;2023-08-06T06:36:03;96992.35;;;19.74;100.00
23899;BME280;20544;50.018;20.010;2023-08-06T06:39:22;96991.53;;;19.73;100.00
23899;BME280;20544;50.018;20.010;2023-08-06T06:42:40;96990.22;;;19.71;100.00
23899;BME280;20544;50.018;20.010;2023-08-06T06:46:09;97004.19;;;19.73;100.00
23899;BME280;20544;50.018;20.010;2023-08-06T06:49:26;96989.42;;;19.70;100.00
23899;BME280;20544;50.018;20.010;2023-08-06T06:52:56;96990.22;;;19.71;100.00
23899;BME280;20544;50.018;20.010;2023-08-06T06:56:12;96990.74;;;19.73;100.00
23899;BME280;20544;50.018;20.010;2023-08-06T06:59:30;96992.61;;;19.72;100.00
23899;BME280;20544;50.018;20.010;2023-08-06T07:02:47;96997.99;;;19.72;100.00
23899;BME280;20544;50.018;20.010;2023-08-06T07:06:04;96996.65;;;19.75;100.00
23899;BME280;20544;50.018;20.010;2023-08-06T07:09:39;96989.08;;;19.77;100.00
23899;BME280;20544;50.018;20.010;2023-08-06T07:13:30;97000.92;;;19.76;100.00
23899;BME280;20544;50.018;20.010;2023-08-06T07:21:02;96988.05;;;19.73;100.00
23899;BME280;20544;50.018;20.010;2023-08-06T07:24:21;96997.61;;;19.60;100.00
23899;BME280;20544;50.018;20.010;2023-08-06T07:27:42;96995.94;;;19.64;100.00
23899;BME280;20544;50.018;20.010;2023-08-06T07:31:07;96997.78;;;19.69;100.00
23899;BME280;20544;50.018;20.010;2023-08-06T07:34:26;96997.55;;;19.65;100.00
23899;BME280;20544;50.018;20.010;2023-08-06T07:37:46;97006.98;;;19.63;100.00
23899;BME280;20544;50.018;20.010;2023-08-06T07:45:31;97024.80;;;19.53;100.00
23899;BME280;20544;50.018;20.010;2023-08-06T07:49:17;97030.47;;;19.52;100.00
23899;BME280;20544;50.018;20.010;2023-08-06T07:52:39;97027.15;;;19.31;100.00
23899;BME280;20544;50.018;20.010;2023-08-06T07:55:56;97025.09;;;19.17;100.00
23899;BME280;20544;50.018;20.010;2023-08-06T07:59:14;97018.69;;;19.13;100.00
23899;BME280;20544;50.018;20.010;2023-08-06T08:02:33;97019.52;;;19.08;100.00
23899;BME280;20544;50.018;20.010;2023-08-06T08:05:49;97018.98;;;19.06;100.00
23899;BME280;20544;50.018;20.010;2023-08-06T08:09:08;97015.55;;;19.01;100.00
23899;BME280;20544;50.018;20.010;2023-08-06T08:12:24;97008.53;;;19.05;100.00
23899;BME280;20544;50.018;20.010;2023-08-06T08:15:41;97008.28;;;19.01;100.00
23899;BME280;20544;50.018;20.010;2023-08-06T08:18:58;97013.16;;;18.99;100.00
23899;BME280;20544;50.018;20.010;2023-08-06T08:22:15;97022.63;;;18.81;100.00
23899;BME280;20544;50.018;20.010;2023-08-06T08:25:32;97033.44;;;18.71;100.00
23899;BME280;20544;50.018;20.010;2023-08-06T08:28:48;97029.17;;;18.65;100.00
23899;BME280;20544;50.018;20.010;2023-08-06T08:32:05;97024.34;;;18.62;100.00
23899;BME280;20544;50.018;20.010;2023-08-06T08:35:24;97027.59;;;18.58;100.00
23899;BME280;20544;50.018;20.010;2023-08-06T08:38:41;97032.42;;;18.56;100.00
23899;BME280;20544;50.018;20.010;2023-08-06T08:41:58;97049.59;;;18.55;100.00
23899;BME280;20544;50.018;20.010;2023-08-06T08:45:16;97053.64;;;18.53;100.00
23899;BME280;20544;50.018;20.010;2023-08-06T08:48:34;97047.51;;;18.47;100.00
23899;BME280;20544;50.018;20.010;2023-08-06T08:51:51;97052.36;;;18.40;100.00
23899;BME280;20544;50.018;20.010;2023-08-06T08:55:10;97044.62;;;18.33;100.00
23899;BME280;20544;50.018;20.010;2023-08-06T08:58:27;97034.67;;;18.34;100.00
23899;BME280;20544;50.018;20.010;2023-08-06T09:01:44;97031.71;;;18.35;100.00
23899;BME280;20544;50.018;20.010;2023-08-06T09:05:06;97013.21;;;18.34;100.00
23899;BME280;20544;50.018;20.010;2023-08-06T09:08:27;97009.97;;;18.42;100.00
23899;BME280;20544;50.018;20.010;2023-08-06T09:11:47;97021.23;;;18.39;100.00
23899;BME280;20544;50.018;20.010;2023-08-06T09:15:05;97016.99;;;18.27;100.00
23899;BME280;20544;50.018;20.010;2023-08-06T09:18:28;97002.20;;;18.35;100.00
23899;BME280;20544;50.018;20.010;2023-08-06T09:21:47;97003.49;;;18.48;100.00
23899;BME280;20544;50.018;20.010;2023-08-06T09:25:08;97001.82;;;18.57;100.00
23899;BME280;20544;50.018;20.010;2023-08-06T09:28:25;97010.44;;;18.54;100.00
23899;BME280;20544;50.018;20.010;2023-08-06T09:31:58;97023.89;;;18.49;100.00
23899;BME280;20544;50.018;20.010;2023-08-06T09:35:21;97031.97;;;18.39;100.00
23899;BME280;20544;50.018;20.010;2023-08-06T09:38:41;97031.45;;;18.32;100.00
23899;BME280;20544;50.018;20.010;2023-08-06T09:42:00;97036.87;;;18.21;100.00
23899;BME280;20544;50.018;20.010;2023-08-06T09:45:19;97040.13;;;18.13;100.00
23899;BME280;20544;50.018;20.010;2023-08-06T09:48:35;97027.25;;;18.10;100.00
23899;BME280;20544;50.018;20.010;2023-08-06T09:51:52;97036.91;;;18.11;100.00
23899;BME280;20544;50.018;20.010;2023-08-06T09:55:10;97033.70;;;18.04;100.00
23899;BME280;20544;50.018;20.010;2023-08-06T09:58:32;97032.09;;;18.03;100.00
23899;BME280;20544;50.018;20.010;2023-08-06T10:01:50;97040.98;;;17.98;100.00
23899;BME280;20544;50.018;20.010;2023-08-06T10:05:09;97060.25;;;18.05;100.00
23899;BME280;20544;50.018;20.010;2023-08-06T10:08:26;97054.11;;;18.00;100.00
23899;BME280;20544;50.018;20.010;2023-08-06T10:11:47;97063.75;;;18.06;100.00
23899;BME280;20544;50.018;20.010;2023-08-06T10:15:10;97061.33;;;17.99;100.00
23899;BME280;20544;50.018;20.010;2023-08-06T10:18:28;97051.41;;;18.05;100.00
23899;BME280;20544;50.018;20.010;2023-08-06T10:25:26;97046.33;;;18.03;100.00
23899;BME280;20544;50.018;20.010;2023-08-06T10:28:47;97055.42;;;18.07;100.00
23899;BME280;20544;50.018;20.010;2023-08-06T10:32:05;97051.41;;;18.05;100.00
23899;BME280;20544;50.018;20.010;2023-08-06T10:35:34;97061.61;;;17.98;100.00
23899;BME280;20544;50.018;20.010;2023-08-06T10:38:52;97071.55;;;17.97;100.00
23899;BME280;20544;50.018;20.010;2023-08-06T10:42:20;97052.50;;;17.88;100.00
23899;BME280;20544;50.018;20.010;2023-08-06T10:45:42;97065.08;;;17.88;100.00
23899;BME280;20544;50.018;20.010;2023-08-06T10:49:00;97047.64;;;17.90;100.00
23899;BME280;20544;50.018;20.010;2023-08-06T10:52:20;97055.97;;;17.99;100.00
23899;BME280;20544;50.018;20.010;2023-08-06T10:55:36;97064.55;;;17.91;100.00
23899;BME280;20544;50.018;20.010;2023-08-06T10:58:55;97066.70;;;17.84;100.00
23899;BME280;20544;50.018;20.010;2023-08-06T11:02:15;97062.13;;;17.84;100.00
23899;BME280;20544;50.018;20.010;2023-08-06T11:05:32;97048.23;;;17.77;100.00
23899;BME280;20544;50.018;20.010;2023-08-06T11:08:51;97048.47;;;17.81;100.00
23899;BME280;20544;50.018;20.010;2023-08-06T11:12:11;97051.98;;;17.71;100.00
23899;BME280;20544;50.018;20.010;2023-08-06T11:15:29;97060.01;;;17.66;100.00
23899;BME280;20544;50.018;20.010;2023-08-06T11:18:51;97062.98;;;17.59;100.00
23899;BME280;20544;50.018;20.010;2023-08-06T11:22:12;97072.88;;;17.53;100.00
23899;BME280;20544;50.018;20.010;2023-08-06T11:25:38;97082.27;;;17.35;100.00
23899;BME280;20544;50.018;20.010;2023-08-06T11:29:02;97086.02;;;17.29;100.00
23899;BME280;20544;50.018;20.010;2023-08-06T11:32:17;97090.54;;;17.13;100.00
23899;BME280;20544;50.018;20.010;2023-08-06T11:35:37;97096.95;;;17.07;100.00
23899;BME280;20544;50.018;20.010;2023-08-06T11:38:54;97083.00;;;16.94;100.00
23899;BME280;20544;50.018;20.010;2023-08-06T11:42:12;97080.37;;;17.05;100.00
23899;BME280;20544;50.018;20.010;2023-08-06T11:45:36;97076.09;;;17.19;100.00
23899;BME280;20544;50.018;20.010;2023-08-06T11:48:56;97075.57;;;17.22;100.00
23899;BME280;20544;50.018;20.010;2023-08-06T11:52:18;97088.96;;;17.22;100.00
23899;BME280;20544;50.018;20.010;2023-08-06T11:55:35;97093.50;;;17.27;100.00
23899;BME280;20544;50.018;20.010;2023-08-06T11:58:55;97094.59;;;17.31;100.00
23899;BME280;20544;50.018;20.010;2023-08-06T12:02:14;97097.52;;;17.24;100.00
23899;BME280;20544;50.018;20.010;2023-08-06T12:05:33;97091.89;;;17.21;100.00
23899;BME280;20544;50.018;20.010;2023-08-06T12:08:50;97099.92;;;17.21;100.00
23899;BME280;20544;50.018;20.010;2023-08-06T12:12:08;97090.03;;;17.21;100.00
23899;BME280;20544;50.018;20.010;2023-08-06T12:15:25;97093.50;;;17.22;100.00
23899;BME280;20544;50.018;20.010;2023-08-06T12:18:45;97097.00;;;17.17;100.00
23899;BME280;20544;50.018;20.010;2023-08-06T12:22:02;97114.92;;;17.17;100.00
23899;BME280;20544;50.018;20.010;2023-08-06T12:25:19;97124.56;;;17.07;100.00
23899;BME280;20544;50.018;20.010;2023-08-06T12:28:35;97122.39;;;17.04;100.00
23899;BME280;20544;50.018;20.010;2023-08-06T12:31:52;97136.56;;;17.00;100.00
23899;BME280;20544;50.018;20.010;2023-08-06T12:35:11;97128.80;;;16.98;100.00
23899;BME280;20544;50.018;20.010;2023-08-06T12:38:29;97106.05;;;17.01;100.00
23899;BME280;20544;50.018;20.010;2023-08-06T12:41:46;97106.59;;;16.97;100.00
23899;BME280;20544;50.018;20.010;2023-08-06T12:45:05;97114.03;;;16.90;100.00
23899;BME280;20544;50.018;20.010;2023-08-06T12:48:45;97115.41;;;16.93;100.00
23899;BME280;20544;50.018;20.010;2023-08-06T12:52:02;97136.55;;;16.94;100.00
23899;BME280;20544;50.018;20.010;2023-08-06T12:55:24;97140.58;;;16.97;100.00
23899;BME280;20544;50.018;20.010;2023-08-06T12:58:41;97149.41;;;16.92;100.00
23899;BME280;20544;50.018;20.010;2023-08-06T13:01:59;97151.55;;;16.95;100.00
23899;BME280;20544;50.018;20.010;2023-08-06T13:05:16;97161.19;;;16.91;100.00
23899;BME280;20544;50.018;20.010;2023-08-06T13:08:33;97169.11;;;16.76;100.00
23899;BME280;20544;50.018;20.010;2023-08-06T13:11:50;97178.16;;;16.64;100.00
23899;BME280;20544;50.018;20.010;2023-08-06T13:15:09;97177.92;;;16.66;100.00
23899;BME280;20544;50.018;20.010;2023-08-06T13:18:24;97180.02;;;16.59;100.00
23899;BME280;20544;50.018;20.010;2023-08-06T13:21:58;97189.42;;;16.66;100.00
23899;BME280;20544;50.018;20.010;2023-08-06T13:25:30;97199.55;;;16.59;100.00
23899;BME280;20544;50.018;20.010;2023-08-06T13:28:48;97196.36;;;16.62;100.00
23899;BME280;20544;50.018;20.010;2023-08-06T13:32:05;97204.34;;;16.57;100.00
23899;BME280;20544;50.018;20.010;2023-08-06T13:35:27;97201.72;;;16.62;100.00
23899;BME280;20544;50.018;20.010;2023-08-06T13:38:44;97213.50;;;16.66;100.00
23899;BME280;20544;50.018;20.010;2023-08-06T13:42:00;97215.92;;;16.68;100.00
23899;BME280;20544;50.018;20.010;2023-08-06T13:45:17;97205.98;;;16.63;100.00
23899;BME280;20544;50.018;20.010;2023-08-06T13:48:33;97205.20;;;16.68;100.00
23899;BME280;20544;50.018;20.010;2023-08-06T13:51:49;97194.29;;;16.75;100.00
23899;BME280;20544;50.018;20.010;2023-08-06T13:55:09;97201.23;;;16.76;100.00
23899;BME280;20544;50.018;20.010;2023-08-06T13:58:26;97185.74;;;16.83;100.00
23899;BME280;20544;50.018;20.010;2023-08-06T14:01:44;97196.45;;;16.83;100.00
23899;BME280;20544;50.018;20.010;2023-08-06T14:05:04;97203.40;;;16.79;100.00
23899;BME280;20544;50.018;20.010;2023-08-06T14:08:21;97223.20;;;16.78;100.00
23899;BME280;20544;50.018;20.010;2023-08-06T14:11:38;97228.53;;;16.73;100.00
23899;BME280;20544;50.018;20.010;2023-08-06T14:14:54;97217.29;;;16.76;100.00
23899;BME280;20544;50.018;20.010;2023-08-06T14:18:12;97221.89;;;16.86;100.00
23899;BME280;20544;50.018;20.010;2023-08-06T14:21:29;97243.59;;;16.89;100.00
23899;BME280;20544;50.018;20.010;2023-08-06T14:24:48;97248.95;;;16.89;100.00
23899;BME280;20544;50.018;20.010;2023-08-06T14:28:06;97248.95;;;16.89;100.00
23899;BME280;20544;50.018;20.010;2023-08-06T14:31:23;97251.89;;;16.88;100.00
23899;BME280;20544;50.018;20.010;2023-08-06T14:34:42;97263.91;;;16.80;100.00
23899;BME280;20544;50.018;20.010;2023-08-06T14:37:58;97261.44;;;16.73;100.00
23899;BME280;20544;50.018;20.010;2023-08-06T14:41:16;97255.85;;;16.75;100.00
23899;BME280;20544;50.018;20.010;2023-08-06T14:44:34;97249.97;;;16.78;100.00
23899;BME280;20544;50.018;20.010;2023-08-06T14:47:51;97249.97;;;16.78;100.00
23899;BME280;20544;50.018;20.010;2023-08-06T14:51:10;97244.92;;;16.87;100.00
23899;BME280;20544;50.018;20.010;2023-08-06T14:54:28;97239.41;;;16.98;100.00
23899;BME280;20544;50.018;20.010;2023-08-06T14:57:44;97240.22;;;17.04;100.00
23899;BME280;20544;50.018;20.010;2023-08-06T15:01:00;97245.10;;;17.18;100.00
23899;BME280;20544;50.018;20.010;2023-08-06T15:04:18;97257.16;;;17.20;100.00
23899;BME280;20544;50.018;20.010;2023-08-06T15:07:35;97253.92;;;17.18;100.00
23899;BME280;20544;50.018;20.010;2023-08-06T15:10:55;97266.81;;;17.21;100.00
23899;BME280;20544;50.018;20.010;2023-08-06T15:14:16;97274.58;;;17.23;100.00
23899;BME280;20544;50.018;20.010;2023-08-06T15:17:35;97287.70;;;17.24;100.00
23899;BME280;20544;50.018;20.010;2023-08-06T15:20:56;97295.97;;;17.12;100.00
23899;BME280;20544;50.018;20.010;2023-08-06T15:24:16;97305.63;;;17.13;100.00
23899;BME280;20544;50.018;20.010;2023-08-06T15:27:34;97321.14;;;17.11;100.00
23899;BME280;20544;50.018;20.010;2023-08-06T15:30:53;97328.41;;;17.16;100.00
23899;BME280;20544;50.018;20.010;2023-08-06T15:34:14;97326.25;;;17.18;100.00
23899;BME280;20544;50.018;20.010;2023-08-06T15:37:31;97326.25;;;17.18;100.00
23899;BME280;20544;50.018;20.010;2023-08-06T15:40:48;97333.47;;;17.12;100.00
23899;BME280;20544;50.018;20.010;2023-08-06T15:44:08;97335.88;;;17.14;100.00
23899;BME280;20544;50.018;20.010;2023-08-06T15:47:24;97338.84;;;17.18;100.00
23899;BME280;20544;50.018;20.010;2023-08-06T15:50:40;97347.63;;;17.08;100.00
23899;BME280;20544;50.018;20.010;2023-08-06T15:53:56;97353.25;;;17.06;100.00
23899;BME280;20544;50.018;20.010;2023-08-06T15:57:13;97360.43;;;17.01;100.00
23899;BME280;20544;50.018;20.010;2023-08-06T16:00:29;97360.96;;;16.97;100.00
23899;BME280;20544;50.018;20.010;2023-08-06T16:03:46;97357.16;;;16.93;100.00
23899;BME280;20544;50.018;20.010;2023-08-06T16:07:05;97371.05;;;16.90;100.00
23899;BME280;20544;50.018;20.010;2023-08-06T16:10:20;97375.91;;;16.93;100.00
23899;BME280;20544;50.018;20.010;2023-08-06T16:13:36;97381.73;;;16.85;100.00
23899;BME280;20544;50.018;20.010;2023-08-06T16:16:56;97386.26;;;16.85;100.00
23899;BME280;20544;50.018;20.010;2023-08-06T16:20:17;97394.25;;;16.79;100.00
23899;BME280;20544;50.018;20.010;2023-08-06T16:23:34;97386.26;;;16.85;100.00
23899;BME280;20544;50.018;20.010;2023-08-06T16:26:50;97391.34;;;16.81;100.00
23899;BME280;20544;50.018;20.010;2023-08-06T16:30:08;97391.38;;;16.86;100.00
23899;BME280;20544;50.018;20.010;2023-08-06T16:33:26;97391.34;;;16.81;100.00
23899;BME280;20544;50.018;20.010;2023-08-06T16:36:43;97394.02;;;16.81;100.00
23899;BME280;20544;50.018;20.010;2023-08-06T16:40:03;97391.84;;;16.78;100.00
23899;BME280;20544;50.018;20.010;2023-08-06T16:43:23;97388.37;;;16.77;100.00
23899;BME280;20544;50.018;20.010;2023-08-06T16:46:40;97391.34;;;16.81;100.00
23899;BME280;20544;50.018;20.010;2023-08-06T16:49:57;97398.29;;;16.82;100.00
23899;BME280;20544;50.018;20.010;2023-08-06T16:53:17;97388.66;;;16.81;100.00
23899;BME280;20544;50.018;20.010;2023-08-06T16:56:34;97401.23;;;16.80;100.00
23899;BME280;20544;50.018;20.010;2023-08-06T16:59:54;97401.75;;;16.77;100.00
23899;BME280;20544;50.018;20.010;2023-08-06T17:03:11;97401.98;;;16.76;100.00
23899;BME280;20544;50.018;20.010;2023-08-06T17:06:29;97406.02;;;16.78;100.00
23899;BME280;20544;50.018;20.010;2023-08-06T17:09:45;97413.25;;;16.78;100.00
23899;BME280;20544;50.018;20.010;2023-08-06T17:13:02;97409.48;;;16.74;100.00
23899;BME280;20544;50.018;20.010;2023-08-06T17:16:21;97417.52;;;16.74;100.00
23899;BME280;20544;50.018;20.010;2023-08-06T17:19:39;97416.95;;;16.72;100.00